Time;durP1;ratioP1;P1;durP2;ratioP2;P2;SDS_P1;SDS_P2;PMS_P1;PMS_P2;Temp;Humidity;BMP_temperature;BMP_pressure;BME280_temperature;BME280_humidity;BME280_pressure;Samples;Min_cycle;Max_cycle;Signal;HPM_P1;HPM_P2
2021/12/25 02:01:32;;;;;;;13.28;10.65;;;;;;;6.28;69.78;94091.23;812851;70;32774;-84
2021/12/25 02:46:29;;;;;;;16.30;12.50;;;;;;;5.89;63.42;94068.50;833833;71;32857;-81
2021/12/25 03:01:57;;;;;;;14.83;11.90;;;;;;;5.67;63.97;94058.45;815284;72;32865;-82
2021/12/25 03:16:53;;;;;;;13.95;11.12;;;;;;;5.38;65.00;94064.81;833700;71;33308;-82
2021/12/25 03:31:36;;;;;;;11.48;8.75;;;;;;;5.16;65.98;94062.00;833673;71;33192;-82
2021/12/25 03:46:44;;;;;;;;;;;;;;;;;;;;;
2021/12/25 04:16:38;;;;;;;8.58;7.60;;;;;;;4.82;67.44;94090.39;836807;70;33433;-80
2021/12/25 04:31:56;;;;;;;10.58;7.15;;;;;;;5.01;67.41;94078.95;827533;71;32070;-81
2021/12/25 05:01:51;;;;;;;10.05;7.87;;;;;;;4.68;67.75;94079.73;835336;70;33113;-84
2021/12/25 05:16:49;;;;;;;;;;;;;;;;;;;;;
2021/12/25 05:31:41;;;;;;;9.20;7.40;;;;;;;4.53;69.00;94124.69;827261;71;32891;-82
2021/12/25 05:46:44;;;;;;;13.45;8.63;;;;;;;4.72;69.16;94126.25;837922;70;32733;-83
2021/12/25 06:01:20;;;;;;;9.73;7.83;;;;;;;4.88;68.83;94160.05;827773;71;31898;-81
2021/12/25 06:16:11;;;;;;;10.13;8.20;;;;;;;5.12;68.28;94161.09;828022;71;30893;-78
2021/12/25 06:31:09;;;;;;;11.65;8.55;;;;;;;5.52;67.18;94156.88;828241;71;30265;-77
2021/12/25 06:46:13;;;;;;;11.75;7.85;;;;;;;5.85;66.41;94164.34;828159;71;33290;-81
2021/12/25 07:01:10;;;;;;;10.80;7.62;;;;;;;6.16;65.46;94176.73;828124;71;29781;-77
2021/12/25 07:16:15;;;;;;;14.13;8.93;;;;;;;6.84;64.05;94200.87;827363;71;33234;-76
2021/12/25 07:31:12;;;;;;;12.68;11.12;;;;;;;7.38;62.17;94194.73;827889;71;30221;-78
2021/12/25 07:46:15;;;;;;;12.73;9.08;;;;;;;7.20;61.27;94209.77;827563;71;30882;-77
2021/12/25 08:01:11;;;;;;;14.55;9.55;;;;;;;6.44;63.42;94206.58;827903;71;29796;-77
2021/12/25 08:16:10;;;;;;;13.62;9.45;;;;;;;6.43;64.04;94212.84;828142;71;28739;-79
2021/12/25 08:31:17;;;;;;;13.38;10.03;;;;;;;9.78;68.58;94216.77;833896;71;31715;-79
2021/12/25 09:01:18;;;;;;;16.40;12.70;;;;;;;8.43;59.99;94185.02;829059;71;31883;-75
2021/12/25 09:16:15;;;;;;;13.45;10.95;;;;;;;9.70;55.87;94170.28;833722;71;31705;-76
2021/12/25 09:31:14;;;;;;;17.70;13.65;;;;;;;9.09;56.64;94151.91;833766;71;29883;-76
2021/12/25 09:46:17;;;;;;;14.20;11.50;;;;;;;9.34;56.50;94137.61;833658;71;31864;-79
2021/12/25 10:01:14;;;;;;;12.82;10.98;;;;;;;9.73;55.05;94119.91;822333;71;32314;-78
2021/12/25 10:16:31;;;;;;;10.75;8.33;;;;;;;10.68;53.18;94110.13;821549;71;32719;-75
2021/12/25 10:31:17;;;;;;;11.97;9.13;;;;;;;12.33;48.64;94083.83;826499;71;31761;-77
2021/12/25 10:46:09;;;;;;;13.20;9.98;;;;;;;12.62;47.68;94076.08;811463;71;28604;-78
2021/12/25 11:01:13;;;;;;;13.93;12.37;;;;;;;13.23;46.30;94068.64;823195;71;28861;-78
2021/12/25 11:16:33;;;;;;;22.65;17.15;;;;;;;13.00;46.07;94045.14;827352;70;31771;-77
2021/12/25 11:31:16;;;;;;;19.05;14.93;;;;;;;12.84;46.79;94007.23;814390;71;28875;-77
2021/12/25 11:46:47;;;;;;;24.60;18.15;;;;;;;12.19;48.37;93997.16;827836;71;32123;-75
2021/12/25 12:01:44;;;;;;;18.62;15.55;;;;;;;11.34;50.91;94011.36;826724;71;31773;-78
2021/12/25 12:16:17;;;;;;;17.98;13.18;;;;;;;10.62;53.01;93996.64;824008;71;33959;-79
2021/12/25 12:31:42;;;;;;;23.10;14.43;;;;;;;10.40;54.05;94010.02;820711;71;33420;-78
2021/12/25 12:46:11;;;;;;;14.87;11.25;;;;;;;10.15;54.29;93969.93;820125;71;30378;-76
2021/12/25 13:01:15;;;;;;;15.45;11.35;;;;;;;10.51;54.54;94006.61;825222;71;33159;-78
2021/12/25 13:16:12;;;;;;;12.70;10.45;;;;;;;10.56;54.38;94015.69;826056;71;30779;-76
2021/12/25 13:31:11;;;;;;;15.08;9.65;;;;;;;10.55;54.41;94015.44;814681;71;29835;-75
2021/12/25 13:46:09;;;;;;;10.70;9.60;;;;;;;10.44;54.61;94003.63;829955;71;31403;-79
2021/12/25 14:01:12;;;;;;;11.28;8.90;;;;;;;10.16;55.16;93993.77;832573;71;30198;-75
2021/12/25 14:16:11;;;;;;;18.37;11.40;;;;;;;9.99;55.88;93976.05;828785;71;29724;-77
2021/12/25 14:31:17;;;;;;;14.85;11.30;;;;;;;9.97;57.13;93992.60;817330;71;32738;-77
2021/12/25 14:46:31;;;;;;;14.40;10.98;;;;;;;9.67;57.63;94008.43;828457;70;33516;-77
2021/12/25 15:01:33;;;;;;;31.97;20.55;;;;;;;9.40;58.50;94013.94;826874;71;32854;-76
2021/12/25 15:16:16;;;;;;;25.15;17.40;;;;;;;9.00;59.43;94030.12;827201;70;32756;-79
